Aguila, Arizona
Current Conditions -  °F | °C
As of 11:15 AM on Thursday 27 Nov 2014 (Local Time) from KBXK Reporting Station
Clear Clear  
Wind Chill: 72°   Ceiling: Unl
Heat Index: 72°   Visibility: 10mi
Dew Point: 25°   Wind: 9mph
Humidity: 17%   Direction: 100°E
Pressure: 30.2"   Gusts: NA
Location:  33.94°N, 113.18°W
Report Text: KBXK 271815Z AUTO 10008KT 10SM CLR 22/M04 A3020 RMK AO1
Loading
Personal Weather Stations






























Interactive Weather Map New forecast layout! Learn more

10-Day Weather Forecast

Advertisements
Track Severe Weather on mobile